ADDS METAR Data INFO
IDs: Format: Raw Decoded Include TAF

Data at: 2032 UTC 20 Jul 2018

KCLT 201952Z 07009G22KT 10SM FEW045 FEW085 SCT150 BKN250 31/16 A2999 RMK AO2 SLP145 T03060161
KCLT 201852Z 10009G15KT 10SM FEW045 SCT085 BKN150 BKN250 30/16 A3001 RMK AO2 SLP153 T03000156
KCLT 201752Z 06012G17KT 10SM FEW030 SCT085 BKN140 BKN250 29/16 A3004 RMK AO2 SLP161 T02940161 10300 20239 58012
KCLT 201652Z 06008G17KT 10SM FEW030 SCT100 BKN250 29/17 A3005 RMK AO2 SLP166 T02940167
KCLT 201552Z 07012KT 10SM FEW030 BKN130 BKN250 28/16 A3007 RMK AO2 SLP172 T02830156
KCLT 201452Z 09010G17KT 10SM FEW025 SCT140 BKN200 BKN250 28/18 A3007 RMK AO2 SLP173 T02780178 50002
KCLT 201352Z 09008G16KT 10SM FEW025 FEW080 BKN190 BKN250 26/20 A3008 RMK AO2 SLP178 T02560200
KCLT 201252Z 07010KT 10SM FEW020 BKN160 BKN250 24/21 A3008 RMK AO2 SLP176 T02440211
KCLT 201152Z VRB06KT 10SM FEW030 SCT170 BKN250 24/21 A3007 RMK AO2 SLP172 T02390211 10239 20217 53009
KCLT 201052Z 10008KT 10SM FEW040 SCT200 BKN250 23/21 A3004 RMK AO2 SLP164 T02280206
KCLT 200952Z 11009KT 10SM SCT200 SCT250 23/21 A3004 RMK AO2 SLP162 T02330206
KCLT 200852Z 11006KT 10SM BKN200 BKN250 23/19 A3004 RMK AO2 SLP162 T02330194 55002
KCLT 200752Z 12006KT 10SM FEW110 FEW250 24/19 A3004 RMK AO2 SLP161 T02390189
KCLT 200652Z 14005KT 10SM FEW120 FEW250 23/19 A3003 RMK AO2 SLP161 T02280194
KCLT 200552Z 00000KT 10SM SCT120 23/19 A3005 RMK AO2 SLP165 T02330189 10283 20233 50001
KCLT 200452Z 18004KT 10SM BKN120 24/18 A3006 RMK AO2 SLP168 T02440178 403060239
KCLT 200352Z 17004KT 10SM SCT070 BKN120 26/17 A3005 RMK AO2 SLP168 T02610172
KCLT 200252Z 12008KT 10SM FEW065 BKN100 28/16 A3005 RMK AO2 SLP164 T02830161 53008
KCLT 200152Z 00000KT 10SM BKN070 OVC095 26/21 A3004 RMK AO2 SLP162 T02560206
KCLT 200052Z 36005KT 10SM BKN070 BKN090 OVC110 26/21 A3003 RMK AO2 SLP158 T02560206
KCLT 192352Z 34005KT 10SM BKN090 BKN110 BKN250 27/21 A3002 RMK AO2 SLP157 T02670206 10306 20267 53001
KCLT 192252Z 34006KT 10SM SCT085 BKN110 BKN250 27/20 A3001 RMK AO2 SLP154 T02720200
KCLT 192152Z 31008KT 10SM FEW046 SCT090 BKN110 BKN250 28/19 A3002 RMK AO2 SLP155 T02830194
KCLT 192052Z 34007KT 10SM FEW048 SCT080 BKN110 BKN250 29/19 A3002 RMK AO2 SLP154 T02940194 58018
KCLT 191952Z 32005KT 10SM SCT075 BKN100 BKN250 29/18 A3004 RMK AO2 SLP162 T02940178
KCLT 191852Z 32006KT 10SM FEW060 BKN080 OVC250 28/19 A3006 RMK AO2 SLP169 T02780189
KCLT 191752Z 33004KT 10SM FEW050 OVC080 27/18 A3007 RMK AO2 SLP173 T02670183 10272 20239 58005
KCLT 191652Z 33004KT 10SM FEW040 BKN080 OVC200 27/17 A3008 RMK AO2 SLP176 T02670172
KCLT 191552Z 04005KT 10SM BKN080 OVC200 26/17 A3009 RMK AO2 SLP179 T02610172
KCLT 191452Z 06006KT 10SM OVC075 25/17 A3009 RMK AO2 SLP178 T02500172 51012
KCLT 191352Z 07006KT 10SM FEW055 BKN080 OVC200 24/17 A3008 RMK AO2 SLP175 T02440167
KCLT 191252Z 07009KT 10SM FEW055 BKN080 OVC250 24/16 A3007 RMK AO2 SLP172 T02390161
KCLT 191152Z 10013G20KT 10SM FEW055 BKN080 BKN100 BKN250 24/16 A3005 RMK AO2 SLP166 T02440161 10261 20239 53016
KCLT 191052Z 09008KT 10SM FEW055 BKN080 BKN100 24/16 A3004 RMK AO2 SLP161 T02390161
KCLT 190952Z 08007KT 10SM SCT090 SCT100 SCT250 24/17 A3002 RMK AO2 SLP154 T02390167
KCLT 190852Z 08007KT 10SM SCT050 24/16 A3000 RMK AO2 SLP150 T02440161 55001